Alden, Michigan
Current Conditions -  °F | °C
As of 2:18 PM on Saturday 25 Oct 2014 (Local Time) from KACB Reporting Station
Scattered Clouds Scattered Clouds  
Wind Chill: 15°   Ceiling: Unl
Heat Index: 15°   Visibility: 10mi
Dew Point:   Wind: 8mph
Humidity: 44%   Direction: 290°WNW
Pressure: 29.72"   Gusts: 18mph
Location:  44.88°N, 85.28°W
Report Text: KACB 251818Z AUTO 29007G16KT 250V320 10SM SCT044 15/03 A2972 RMK AO2 T01540032
Loading
Personal Weather Stations






























Interactive Weather Map
Tropical Storm Tracking
New forecast layout! Learn more

10-Day Weather Forecast

Advertisements
Track Severe Weather on mobile